EDT,Max TemperatureF,Mean TemperatureF,Min TemperatureF,Max Dew PointF,MeanDew PointF,Min DewpointF,Max Humidity, Mean Humidity, Min Humidity, Max Sea Level PressureIn, Mean Sea Level PressureIn, Min Sea Level PressureIn, Max VisibilityMiles, Mean VisibilityMiles, Min VisibilityMiles, Max Wind SpeedMPH, Mean Wind SpeedMPH, Max Gust SpeedMPH,PrecipitationIn, CloudCover, Events, WindDirDegrees
2013-9-1,77,69,62,71,68,63,100,94,78,29.86,29.78,29.73,10,7,2,8,3,,0.00,4,,110
2013-9-2,75,68,61,72,65,52,100,86,59,29.90,29.78,29.71,10,9,1,13,5,18,0.00,5,,304
2013-9-3,73,65,57,55,53,51,82,70,50,30.01,29.96,29.89,12,10,7,13,8,,0.00,6,Rain,298
2013-9-4,80,68,56,60,57,53,90,67,46,30.07,30.03,30.01,12,11,10,13,8,,0.00,1,,262
2013-9-5,70,62,50,64,49,46,100,65,43,30.27,30.24,30.18,12,11,10,15,10,21,0.00,3,,357
2013-9-6,72,58,45,52,45,35,93,64,28,30.30,30.22,30.08,12,11,10,10,3,,0.00,4,,172
2013-9-7,83,65,55,64,54,50,84,69,53,30.07,30.03,29.98,12,11,10,12,4,,0.00,5,,233
2013-9-8,72,63,54,64,54,49,94,70,46,30.12,30.08,30.02,12,10,5,16,10,22,0.00,4,,17
2013-9-9,74,62,50,68,61,50,100,86,75,30.08,30.01,29.91,10,8,7,10,4,,0.00,5,Rain,135
2013-9-10,97,82,69,72,68,62,95,66,35,30.01,29.95,29.88,10,9,6,21,10,26,0.00,1,,231
2013-9-11,92,80,69,72,68,65,96,72,49,30.04,29.98,29.91,10,9,0,36,9,60,0.01,5,Rain-Thunderstorm,252
2013-9-12,78,67,56,70,60,47,98,79,47,29.94,29.89,29.82,12,8,2,24,9,31,0.23,5,Rain-Thunderstorm,304
2013-9-13,60,52,45,49,45,38,84,70,53,30.14,30.04,29.94,12,11,10,26,13,29,0.00,5,,339
2013-9-14,66,54,41,48,43,38,92,68,37,30.20,30.15,30.09,12,11,10,10,5,,0.00,2,,239
2013-9-15,65,57,49,55,50,46,98,77,52,30.13,30.10,30.05,12,10,7,9,4,,0.01,7,Rain,258
2013-9-16,62,53,44,54,49,40,100,81,50,30.39,30.25,30.12,12,10,2,18,8,23,0.00,4,,339
2013-9-17,65,51,38,50,44,37,95,75,48,30.43,30.36,30.23,12,10,7,14,6,,0.00,1,,90
2013-9-18,74,59,45,59,52,44,97,79,49,30.22,30.15,30.06,12,11,10,13,4,,0.00,2,Fog,142
2013-9-19,78,67,57,68,61,57,100,96,74,30.06,30.02,29.93,10,4,0,16,3,,0.00,2,Fog-Rain,154
2013-9-20,82,74,66,72,68,66,100,94,66,29.93,29.82,29.72,10,7,2,15,9,22,0.18,5,Rain-Thunderstorm,191
2013-9-21,68,62,54,68,62,45,100,91,62,29.86,29.71,29.65,12,9,2,18,6,24,0.45,6,Rain,270
2013-9-22,61,52,44,45,43,41,90,71,56,30.10,29.99,29.88,12,11,10,13,9,,0.00,4,,335
2013-9-23,61,52,44,46,44,41,93,75,51,30.22,30.15,30.10,12,11,10,9,4,,0.00,5,,25
2013-9-24,65,52,41,49,46,41,97,78,54,30.18,30.11,30.02,12,11,10,9,4,,0.00,0,,17
2013-9-25,70,56,43,52,48,43,99,78,40,30.03,30.01,29.98,10,10,10,8,5,,0.00,3,,19
2013-9-26,73,60,46,54,48,46,100,86,41,30.15,30.05,30.00,12,9,1,8,4,,0.00,0,,356
2013-9-27,73,60,46,58,51,46,100,92,50,30.27,30.18,30.15,12,6,1,8,2,,0.00,0,Rain,300
2013-9-28,74,62,50,63,57,50,100,87,55,30.23,30.17,30.04,12,9,2,16,7,,0.00,3,Fog-Rain,89
2013-9-29,66,62,58,64,60,57,100,94,72,30.04,29.98,29.95,10,7,1,10,7,,0.29,7,Rain,239
2013-9-30,69,63,57,60,57,52,100,88,64,30.03,29.98,29.94,12,10,7,9,4,,0.00,6,,308